sensor_id;sensor_type;location;lat;lon;timestamp;P1;durP1;ratioP1;P2;durP2;ratioP2
73239;SDS011;61452;40.054;4.110;2023-07-24T00:03:36;14.35;;;5.40;;
73239;SDS011;61452;40.054;4.110;2023-07-24T00:08:38;13.77;;;4.93;;
73239;SDS011;61452;40.054;4.110;2023-07-24T00:13:41;18.42;;;5.97;;
73239;SDS011;61452;40.054;4.110;2023-07-24T00:18:43;13.43;;;5.28;;
73239;SDS011;61452;40.054;4.110;2023-07-24T00:23:45;18.58;;;5.68;;
73239;SDS011;61452;40.054;4.110;2023-07-24T00:28:47;17.95;;;5.20;;
73239;SDS011;61452;40.054;4.110;2023-07-24T00:33:49;18.13;;;5.28;;
73239;SDS011;61452;40.054;4.110;2023-07-24T00:38:52;16.35;;;5.85;;
73239;SDS011;61452;40.054;4.110;2023-07-24T00:43:54;19.95;;;5.43;;
73239;SDS011;61452;40.054;4.110;2023-07-24T00:48:56;14.63;;;5.40;;
73239;SDS011;61452;40.054;4.110;2023-07-24T00:54:00;12.57;;;5.10;;
73239;SDS011;61452;40.054;4.110;2023-07-24T00:59:03;15.57;;;4.93;;
73239;SDS011;61452;40.054;4.110;2023-07-24T01:04:06;16.02;;;5.30;;
73239;SDS011;61452;40.054;4.110;2023-07-24T01:09:09;16.50;;;5.85;;
73239;SDS011;61452;40.054;4.110;2023-07-24T01:14:13;17.70;;;5.65;;
73239;SDS011;61452;40.054;4.110;2023-07-24T01:19:36;17.48;;;5.88;;
73239;SDS011;61452;40.054;4.110;2023-07-24T01:25:00;15.02;;;5.70;;
73239;SDS011;61452;40.054;4.110;2023-07-24T01:30:19;11.60;;;5.13;;
73239;SDS011;61452;40.054;4.110;2023-07-24T01:35:21;14.40;;;5.38;;
73239;SDS011;61452;40.054;4.110;2023-07-24T01:40:24;19.05;;;5.50;;
73239;SDS011;61452;40.054;4.110;2023-07-24T01:45:26;19.40;;;6.47;;
73239;SDS011;61452;40.054;4.110;2023-07-24T01:50:28;16.55;;;4.95;;
73239;SDS011;61452;40.054;4.110;2023-07-24T01:55:30;13.43;;;5.57;;
73239;SDS011;61452;40.054;4.110;2023-07-24T02:00:33;18.50;;;5.72;;
73239;SDS011;61452;40.054;4.110;2023-07-24T02:05:35;20.35;;;6.05;;
73239;SDS011;61452;40.054;4.110;2023-07-24T02:10:37;11.85;;;5.25;;
73239;SDS011;61452;40.054;4.110;2023-07-24T02:15:40;16.38;;;4.97;;
73239;SDS011;61452;40.054;4.110;2023-07-24T02:20:48;17.52;;;5.45;;
73239;SDS011;61452;40.054;4.110;2023-07-24T02:25:51;21.27;;;6.60;;
73239;SDS011;61452;40.054;4.110;2023-07-24T02:30:54;13.85;;;5.55;;
73239;SDS011;61452;40.054;4.110;2023-07-24T02:36:02;14.30;;;5.65;;
73239;SDS011;61452;40.054;4.110;2023-07-24T02:41:05;12.50;;;5.72;;
73239;SDS011;61452;40.054;4.110;2023-07-24T02:46:07;15.77;;;6.18;;
73239;SDS011;61452;40.054;4.110;2023-07-24T02:51:09;15.02;;;5.88;;
73239;SDS011;61452;40.054;4.110;2023-07-24T02:56:11;22.33;;;6.60;;
73239;SDS011;61452;40.054;4.110;2023-07-24T03:01:13;15.05;;;6.50;;
73239;SDS011;61452;40.054;4.110;2023-07-24T03:06:16;19.08;;;6.55;;
73239;SDS011;61452;40.054;4.110;2023-07-24T03:11:18;15.60;;;5.25;;
73239;SDS011;61452;40.054;4.110;2023-07-24T03:16:20;18.70;;;5.97;;
73239;SDS011;61452;40.054;4.110;2023-07-24T03:21:23;20.95;;;5.80;;
73239;SDS011;61452;40.054;4.110;2023-07-24T03:26:25;16.35;;;5.78;;
73239;SDS011;61452;40.054;4.110;2023-07-24T03:31:27;15.00;;;5.45;;
73239;SDS011;61452;40.054;4.110;2023-07-24T03:36:29;18.40;;;6.43;;
73239;SDS011;61452;40.054;4.110;2023-07-24T03:41:32;21.27;;;5.95;;
73239;SDS011;61452;40.054;4.110;2023-07-24T03:46:35;22.00;;;5.72;;
73239;SDS011;61452;40.054;4.110;2023-07-24T03:51:37;18.05;;;6.07;;
73239;SDS011;61452;40.054;4.110;2023-07-24T03:56:39;17.10;;;5.97;;
73239;SDS011;61452;40.054;4.110;2023-07-24T04:01:41;18.27;;;6.38;;
73239;SDS011;61452;40.054;4.110;2023-07-24T04:06:43;13.27;;;5.22;;
73239;SDS011;61452;40.054;4.110;2023-07-24T04:11:47;21.45;;;6.20;;
73239;SDS011;61452;40.054;4.110;2023-07-24T04:16:49;15.63;;;5.72;;
73239;SDS011;61452;40.054;4.110;2023-07-24T04:21:52;15.93;;;6.00;;
73239;SDS011;61452;40.054;4.110;2023-07-24T04:26:54;12.45;;;4.70;;
73239;SDS011;61452;40.054;4.110;2023-07-24T04:31:56;18.85;;;6.15;;
73239;SDS011;61452;40.054;4.110;2023-07-24T04:36:58;25.33;;;6.60;;
73239;SDS011;61452;40.054;4.110;2023-07-24T04:42:00;21.63;;;6.28;;
73239;SDS011;61452;40.054;4.110;2023-07-24T04:47:03;18.77;;;5.97;;
73239;SDS011;61452;40.054;4.110;2023-07-24T04:52:05;20.08;;;6.15;;
73239;SDS011;61452;40.054;4.110;2023-07-24T04:57:07;15.63;;;5.78;;
73239;SDS011;61452;40.054;4.110;2023-07-24T05:02:10;15.43;;;5.57;;
73239;SDS011;61452;40.054;4.110;2023-07-24T05:07:12;18.73;;;7.13;;
73239;SDS011;61452;40.054;4.110;2023-07-24T05:12:14;17.25;;;6.00;;
73239;SDS011;61452;40.054;4.110;2023-07-24T05:17:16;16.67;;;6.38;;
73239;SDS011;61452;40.054;4.110;2023-07-24T05:27:21;15.98;;;6.50;;
73239;SDS011;61452;40.054;4.110;2023-07-24T05:32:24;17.92;;;6.55;;
73239;SDS011;61452;40.054;4.110;2023-07-24T05:37:26;15.82;;;5.60;;
73239;SDS011;61452;40.054;4.110;2023-07-24T05:42:28;19.60;;;6.60;;
73239;SDS011;61452;40.054;4.110;2023-07-24T05:47:30;12.13;;;5.18;;
73239;SDS011;61452;40.054;4.110;2023-07-24T05:52:32;13.77;;;6.10;;
73239;SDS011;61452;40.054;4.110;2023-07-24T05:57:34;14.05;;;6.22;;
73239;SDS011;61452;40.054;4.110;2023-07-24T06:02:37;14.57;;;6.25;;
73239;SDS011;61452;40.054;4.110;2023-07-24T06:07:39;14.38;;;6.03;;
73239;SDS011;61452;40.054;4.110;2023-07-24T06:12:41;12.02;;;5.78;;
73239;SDS011;61452;40.054;4.110;2023-07-24T06:17:43;11.57;;;5.65;;
73239;SDS011;61452;40.054;4.110;2023-07-24T06:22:46;13.38;;;6.63;;
73239;SDS011;61452;40.054;4.110;2023-07-24T06:27:48;18.08;;;8.48;;
73239;SDS011;61452;40.054;4.110;2023-07-24T06:32:50;23.75;;;9.55;;
73239;SDS011;61452;40.054;4.110;2023-07-24T06:37:52;17.05;;;9.23;;
73239;SDS011;61452;40.054;4.110;2023-07-24T06:42:54;18.95;;;9.40;;
73239;SDS011;61452;40.054;4.110;2023-07-24T06:47:56;15.32;;;9.25;;
73239;SDS011;61452;40.054;4.110;2023-07-24T06:52:59;18.75;;;9.00;;
73239;SDS011;61452;40.054;4.110;2023-07-24T06:58:01;14.90;;;8.77;;
73239;SDS011;61452;40.054;4.110;2023-07-24T07:03:03;15.15;;;8.77;;
73239;SDS011;61452;40.054;4.110;2023-07-24T07:08:05;15.20;;;8.75;;
73239;SDS011;61452;40.054;4.110;2023-07-24T07:13:07;18.85;;;8.95;;
73239;SDS011;61452;40.054;4.110;2023-07-24T07:18:09;15.45;;;8.65;;
73239;SDS011;61452;40.054;4.110;2023-07-24T07:23:12;16.58;;;8.82;;
73239;SDS011;61452;40.054;4.110;2023-07-24T07:28:15;18.90;;;9.20;;
73239;SDS011;61452;40.054;4.110;2023-07-24T07:33:18;15.20;;;8.88;;
73239;SDS011;61452;40.054;4.110;2023-07-24T07:38:20;15.48;;;8.65;;
73239;SDS011;61452;40.054;4.110;2023-07-24T07:43:24;14.73;;;7.80;;
73239;SDS011;61452;40.054;4.110;2023-07-24T07:48:26;13.38;;;8.00;;
73239;SDS011;61452;40.054;4.110;2023-07-24T07:53:28;18.92;;;9.93;;
73239;SDS011;61452;40.054;4.110;2023-07-24T07:58:31;12.85;;;8.30;;
73239;SDS011;61452;40.054;4.110;2023-07-24T08:03:33;20.02;;;9.88;;
73239;SDS011;61452;40.054;4.110;2023-07-24T08:08:36;15.55;;;8.48;;
73239;SDS011;61452;40.054;4.110;2023-07-24T08:13:38;16.02;;;9.00;;
73239;SDS011;61452;40.054;4.110;2023-07-24T08:18:40;17.77;;;9.35;;
73239;SDS011;61452;40.054;4.110;2023-07-24T08:23:42;15.15;;;8.77;;
73239;SDS011;61452;40.054;4.110;2023-07-24T08:28:44;18.58;;;8.63;;
73239;SDS011;61452;40.054;4.110;2023-07-24T08:33:47;20.15;;;9.43;;
73239;SDS011;61452;40.054;4.110;2023-07-24T08:38:49;17.75;;;9.15;;
73239;SDS011;61452;40.054;4.110;2023-07-24T08:43:51;22.45;;;10.07;;
73239;SDS011;61452;40.054;4.110;2023-07-24T08:48:54;16.80;;;9.88;;
73239;SDS011;61452;40.054;4.110;2023-07-24T08:53:56;24.35;;;9.60;;
73239;SDS011;61452;40.054;4.110;2023-07-24T08:58:58;18.17;;;9.48;;
73239;SDS011;61452;40.054;4.110;2023-07-24T09:04:01;20.83;;;9.20;;
73239;SDS011;61452;40.054;4.110;2023-07-24T09:09:12;15.70;;;8.73;;
73239;SDS011;61452;40.054;4.110;2023-07-24T09:14:22;15.38;;;8.63;;
73239;SDS011;61452;40.054;4.110;2023-07-24T09:19:25;15.27;;;8.55;;
73239;SDS011;61452;40.054;4.110;2023-07-24T09:24:28;16.83;;;9.15;;
73239;SDS011;61452;40.054;4.110;2023-07-24T09:29:30;17.17;;;9.70;;
73239;SDS011;61452;40.054;4.110;2023-07-24T09:34:34;17.33;;;9.35;;
73239;SDS011;61452;40.054;4.110;2023-07-24T09:39:36;13.45;;;9.60;;
73239;SDS011;61452;40.054;4.110;2023-07-24T09:44:38;15.45;;;9.57;;
73239;SDS011;61452;40.054;4.110;2023-07-24T09:49:40;14.77;;;8.90;;
73239;SDS011;61452;40.054;4.110;2023-07-24T09:55:05;14.60;;;9.50;;
73239;SDS011;61452;40.054;4.110;2023-07-24T10:00:19;15.40;;;9.30;;
73239;SDS011;61452;40.054;4.110;2023-07-24T10:05:22;14.95;;;9.40;;
73239;SDS011;61452;40.054;4.110;2023-07-24T10:10:25;16.98;;;8.82;;
73239;SDS011;61452;40.054;4.110;2023-07-24T10:15:28;14.65;;;8.27;;
73239;SDS011;61452;40.054;4.110;2023-07-24T10:20:35;12.27;;;8.32;;
73239;SDS011;61452;40.054;4.110;2023-07-24T10:25:44;14.10;;;8.38;;
73239;SDS011;61452;40.054;4.110;2023-07-24T10:30:54;17.23;;;8.38;;
73239;SDS011;61452;40.054;4.110;2023-07-24T10:36:05;16.40;;;9.60;;
73239;SDS011;61452;40.054;4.110;2023-07-24T10:41:12;12.35;;;8.90;;
73239;SDS011;61452;40.054;4.110;2023-07-24T10:46:15;16.73;;;9.25;;
73239;SDS011;61452;40.054;4.110;2023-07-24T10:51:19;18.13;;;9.25;;
73239;SDS011;61452;40.054;4.110;2023-07-24T10:56:23;16.63;;;9.15;;
73239;SDS011;61452;40.054;4.110;2023-07-24T11:01:25;12.32;;;7.72;;
73239;SDS011;61452;40.054;4.110;2023-07-24T11:06:27;15.15;;;7.40;;
73239;SDS011;61452;40.054;4.110;2023-07-24T11:11:30;12.48;;;7.35;;
73239;SDS011;61452;40.054;4.110;2023-07-24T11:16:34;17.52;;;8.32;;
73239;SDS011;61452;40.054;4.110;2023-07-24T11:21:37;13.65;;;7.60;;
73239;SDS011;61452;40.054;4.110;2023-07-24T11:26:39;18.23;;;8.10;;
73239;SDS011;61452;40.054;4.110;2023-07-24T11:31:43;17.38;;;8.27;;
73239;SDS011;61452;40.054;4.110;2023-07-24T11:36:45;15.73;;;7.47;;
73239;SDS011;61452;40.054;4.110;2023-07-24T11:41:48;22.02;;;8.73;;
73239;SDS011;61452;40.054;4.110;2023-07-24T11:46:50;14.20;;;7.82;;
73239;SDS011;61452;40.054;4.110;2023-07-24T11:52:08;17.52;;;7.85;;
73239;SDS011;61452;40.054;4.110;2023-07-24T11:57:16;16.27;;;7.05;;
73239;SDS011;61452;40.054;4.110;2023-07-24T12:02:18;15.40;;;7.15;;
73239;SDS011;61452;40.054;4.110;2023-07-24T12:07:20;14.68;;;6.45;;
73239;SDS011;61452;40.054;4.110;2023-07-24T12:12:22;19.02;;;6.80;;
73239;SDS011;61452;40.054;4.110;2023-07-24T12:17:25;14.23;;;7.00;;
73239;SDS011;61452;40.054;4.110;2023-07-24T12:22:27;17.30;;;7.65;;
73239;SDS011;61452;40.054;4.110;2023-07-24T12:27:31;15.80;;;7.15;;
73239;SDS011;61452;40.054;4.110;2023-07-24T12:32:34;18.05;;;8.15;;
73239;SDS011;61452;40.054;4.110;2023-07-24T12:37:37;18.58;;;7.38;;
73239;SDS011;61452;40.054;4.110;2023-07-24T12:42:41;16.63;;;6.57;;
73239;SDS011;61452;40.054;4.110;2023-07-24T12:47:43;15.95;;;6.70;;
73239;SDS011;61452;40.054;4.110;2023-07-24T12:52:45;16.13;;;6.72;;
73239;SDS011;61452;40.054;4.110;2023-07-24T12:57:48;12.27;;;6.05;;
73239;SDS011;61452;40.054;4.110;2023-07-24T13:02:50;10.90;;;6.15;;
73239;SDS011;61452;40.054;4.110;2023-07-24T13:07:52;17.02;;;6.93;;
73239;SDS011;61452;40.054;4.110;2023-07-24T13:12:54;13.10;;;6.53;;
73239;SDS011;61452;40.054;4.110;2023-07-24T13:17:56;15.60;;;7.00;;
73239;SDS011;61452;40.054;4.110;2023-07-24T13:23:00;10.98;;;5.97;;
73239;SDS011;61452;40.054;4.110;2023-07-24T13:28:02;14.50;;;6.15;;
73239;SDS011;61452;40.054;4.110;2023-07-24T13:33:05;13.45;;;6.82;;
73239;SDS011;61452;40.054;4.110;2023-07-24T13:38:07;13.38;;;6.32;;
73239;SDS011;61452;40.054;4.110;2023-07-24T13:43:13;14.35;;;6.50;;
73239;SDS011;61452;40.054;4.110;2023-07-24T13:48:15;17.90;;;6.15;;
73239;SDS011;61452;40.054;4.110;2023-07-24T13:53:17;16.30;;;6.35;;
73239;SDS011;61452;40.054;4.110;2023-07-24T13:58:19;17.05;;;6.50;;
73239;SDS011;61452;40.054;4.110;2023-07-24T14:03:21;11.25;;;6.60;;
73239;SDS011;61452;40.054;4.110;2023-07-24T14:08:29;13.88;;;6.18;;
73239;SDS011;61452;40.054;4.110;2023-07-24T14:13:31;13.13;;;6.10;;
73239;SDS011;61452;40.054;4.110;2023-07-24T14:18:33;18.27;;;6.40;;
73239;SDS011;61452;40.054;4.110;2023-07-24T14:23:36;21.13;;;7.15;;
73239;SDS011;61452;40.054;4.110;2023-07-24T14:28:38;14.05;;;6.97;;
73239;SDS011;61452;40.054;4.110;2023-07-24T14:33:40;14.10;;;7.05;;
73239;SDS011;61452;40.054;4.110;2023-07-24T14:38:42;16.80;;;7.18;;
73239;SDS011;61452;40.054;4.110;2023-07-24T14:43:44;19.17;;;7.75;;
73239;SDS011;61452;40.054;4.110;2023-07-24T14:48:46;12.85;;;6.88;;
73239;SDS011;61452;40.054;4.110;2023-07-24T14:53:49;16.33;;;6.85;;
73239;SDS011;61452;40.054;4.110;2023-07-24T14:58:51;14.77;;;7.03;;
73239;SDS011;61452;40.054;4.110;2023-07-24T15:03:53;13.57;;;6.28;;
73239;SDS011;61452;40.054;4.110;2023-07-24T15:08:56;18.52;;;6.40;;
73239;SDS011;61452;40.054;4.110;2023-07-24T15:13:59;13.98;;;6.32;;
73239;SDS011;61452;40.054;4.110;2023-07-24T15:19:01;14.98;;;6.65;;
73239;SDS011;61452;40.054;4.110;2023-07-24T15:24:03;12.77;;;6.75;;
73239;SDS011;61452;40.054;4.110;2023-07-24T15:29:05;11.55;;;6.63;;
73239;SDS011;61452;40.054;4.110;2023-07-24T15:34:07;16.88;;;6.43;;
73239;SDS011;61452;40.054;4.110;2023-07-24T15:39:09;13.35;;;7.15;;
73239;SDS011;61452;40.054;4.110;2023-07-24T15:44:11;13.02;;;7.25;;
73239;SDS011;61452;40.054;4.110;2023-07-24T15:49:13;14.27;;;6.78;;
73239;SDS011;61452;40.054;4.110;2023-07-24T15:54:15;15.75;;;6.93;;
73239;SDS011;61452;40.054;4.110;2023-07-24T15:59:18;18.15;;;7.07;;
73239;SDS011;61452;40.054;4.110;2023-07-24T16:04:20;17.90;;;6.40;;
73239;SDS011;61452;40.054;4.110;2023-07-24T16:09:23;17.88;;;6.82;;
73239;SDS011;61452;40.054;4.110;2023-07-24T16:14:25;19.30;;;7.00;;
73239;SDS011;61452;40.054;4.110;2023-07-24T16:19:27;15.15;;;7.03;;
73239;SDS011;61452;40.054;4.110;2023-07-24T16:29:32;19.65;;;7.47;;
73239;SDS011;61452;40.054;4.110;2023-07-24T16:34:36;10.75;;;6.40;;
73239;SDS011;61452;40.054;4.110;2023-07-24T16:39:38;19.40;;;7.15;;
73239;SDS011;61452;40.054;4.110;2023-07-24T16:44:40;14.68;;;6.43;;
73239;SDS011;61452;40.054;4.110;2023-07-24T16:49:42;13.57;;;6.32;;
73239;SDS011;61452;40.054;4.110;2023-07-24T16:54:44;11.77;;;6.20;;
73239;SDS011;61452;40.054;4.110;2023-07-24T16:59:47;13.88;;;7.25;;
73239;SDS011;61452;40.054;4.110;2023-07-24T17:04:50;14.45;;;7.45;;
73239;SDS011;61452;40.054;4.110;2023-07-24T17:09:52;14.70;;;7.18;;
73239;SDS011;61452;40.054;4.110;2023-07-24T17:14:54;17.20;;;7.40;;
73239;SDS011;61452;40.054;4.110;2023-07-24T17:19:57;18.02;;;7.70;;
73239;SDS011;61452;40.054;4.110;2023-07-24T17:24:59;14.43;;;7.07;;
73239;SDS011;61452;40.054;4.110;2023-07-24T17:30:01;13.25;;;7.60;;
73239;SDS011;61452;40.054;4.110;2023-07-24T17:35:04;15.45;;;7.70;;
73239;SDS011;61452;40.054;4.110;2023-07-24T17:40:07;14.95;;;6.97;;
73239;SDS011;61452;40.054;4.110;2023-07-24T17:45:10;12.07;;;6.95;;
73239;SDS011;61452;40.054;4.110;2023-07-24T17:50:12;14.30;;;6.70;;
73239;SDS011;61452;40.054;4.110;2023-07-24T17:55:14;11.65;;;6.80;;
73239;SDS011;61452;40.054;4.110;2023-07-24T18:00:17;31.08;;;23.15;;
73239;SDS011;61452;40.054;4.110;2023-07-24T18:05:20;22.65;;;15.60;;
73239;SDS011;61452;40.054;4.110;2023-07-24T18:10:22;16.58;;;8.60;;
73239;SDS011;61452;40.054;4.110;2023-07-24T18:15:24;11.48;;;7.70;;
73239;SDS011;61452;40.054;4.110;2023-07-24T18:20:28;12.98;;;6.90;;
73239;SDS011;61452;40.054;4.110;2023-07-24T18:25:31;16.38;;;7.07;;
73239;SDS011;61452;40.054;4.110;2023-07-24T18:30:33;16.70;;;6.85;;
73239;SDS011;61452;40.054;4.110;2023-07-24T18:35:35;19.73;;;9.05;;
73239;SDS011;61452;40.054;4.110;2023-07-24T18:40:37;19.48;;;7.60;;
73239;SDS011;61452;40.054;4.110;2023-07-24T18:45:39;20.92;;;7.72;;
73239;SDS011;61452;40.054;4.110;2023-07-24T18:50:42;19.83;;;6.93;;
73239;SDS011;61452;40.054;4.110;2023-07-24T18:55:45;19.05;;;7.38;;
73239;SDS011;61452;40.054;4.110;2023-07-24T19:00:47;20.73;;;7.95;;
73239;SDS011;61452;40.054;4.110;2023-07-24T19:05:50;23.77;;;8.50;;
73239;SDS011;61452;40.054;4.110;2023-07-24T19:10:52;18.85;;;7.60;;
73239;SDS011;61452;40.054;4.110;2023-07-24T19:15:54;20.95;;;7.70;;
73239;SDS011;61452;40.054;4.110;2023-07-24T19:20:57;20.15;;;8.48;;
73239;SDS011;61452;40.054;4.110;2023-07-24T19:25:59;17.17;;;8.50;;
73239;SDS011;61452;40.054;4.110;2023-07-24T19:31:01;17.67;;;7.68;;
73239;SDS011;61452;40.054;4.110;2023-07-24T19:36:03;20.33;;;7.53;;
73239;SDS011;61452;40.054;4.110;2023-07-24T19:41:05;16.02;;;8.38;;
73239;SDS011;61452;40.054;4.110;2023-07-24T19:46:08;21.48;;;8.15;;
73239;SDS011;61452;40.054;4.110;2023-07-24T19:51:10;21.88;;;7.72;;
73239;SDS011;61452;40.054;4.110;2023-07-24T19:56:12;16.88;;;7.55;;
73239;SDS011;61452;40.054;4.110;2023-07-24T20:01:14;13.50;;;6.72;;
73239;SDS011;61452;40.054;4.110;2023-07-24T20:06:16;20.50;;;8.35;;
73239;SDS011;61452;40.054;4.110;2023-07-24T20:11:18;16.98;;;7.65;;
73239;SDS011;61452;40.054;4.110;2023-07-24T20:16:21;15.48;;;6.78;;
73239;SDS011;61452;40.054;4.110;2023-07-24T20:21:23;14.32;;;6.90;;
73239;SDS011;61452;40.054;4.110;2023-07-24T20:26:25;12.63;;;6.72;;
73239;SDS011;61452;40.054;4.110;2023-07-24T20:31:27;16.67;;;6.22;;
73239;SDS011;61452;40.054;4.110;2023-07-24T20:36:29;12.75;;;6.43;;
73239;SDS011;61452;40.054;4.110;2023-07-24T20:41:32;13.82;;;7.13;;
73239;SDS011;61452;40.054;4.110;2023-07-24T20:46:36;14.35;;;6.43;;
73239;SDS011;61452;40.054;4.110;2023-07-24T20:51:39;12.68;;;6.35;;
73239;SDS011;61452;40.054;4.110;2023-07-24T20:56:42;14.63;;;6.30;;
73239;SDS011;61452;40.054;4.110;2023-07-24T21:01:45;17.60;;;7.75;;
73239;SDS011;61452;40.054;4.110;2023-07-24T21:06:47;15.43;;;7.13;;
73239;SDS011;61452;40.054;4.110;2023-07-24T21:11:50;14.48;;;6.78;;
73239;SDS011;61452;40.054;4.110;2023-07-24T21:16:52;15.60;;;6.97;;
73239;SDS011;61452;40.054;4.110;2023-07-24T21:21:54;16.52;;;6.68;;
73239;SDS011;61452;40.054;4.110;2023-07-24T21:26:56;12.68;;;6.88;;
73239;SDS011;61452;40.054;4.110;2023-07-24T21:31:59;12.00;;;5.45;;
73239;SDS011;61452;40.054;4.110;2023-07-24T21:37:01;15.48;;;7.18;;
73239;SDS011;61452;40.054;4.110;2023-07-24T21:42:03;13.02;;;6.43;;
73239;SDS011;61452;40.054;4.110;2023-07-24T21:47:06;10.57;;;5.63;;
73239;SDS011;61452;40.054;4.110;2023-07-24T21:52:08;13.07;;;6.47;;
73239;SDS011;61452;40.054;4.110;2023-07-24T21:57:10;11.45;;;5.53;;
73239;SDS011;61452;40.054;4.110;2023-07-24T22:02:13;12.57;;;6.10;;
73239;SDS011;61452;40.054;4.110;2023-07-24T22:07:15;13.55;;;6.15;;
73239;SDS011;61452;40.054;4.110;2023-07-24T22:12:17;12.93;;;5.93;;
73239;SDS011;61452;40.054;4.110;2023-07-24T22:17:19;22.48;;;6.50;;
73239;SDS011;61452;40.054;4.110;2023-07-24T22:22:22;13.73;;;5.82;;
73239;SDS011;61452;40.054;4.110;2023-07-24T22:27:25;15.50;;;6.95;;
73239;SDS011;61452;40.054;4.110;2023-07-24T22:32:28;12.73;;;5.82;;
73239;SDS011;61452;40.054;4.110;2023-07-24T22:37:30;15.88;;;5.97;;
73239;SDS011;61452;40.054;4.110;2023-07-24T22:42:32;15.02;;;5.38;;
73239;SDS011;61452;40.054;4.110;2023-07-24T22:47:34;13.98;;;5.35;;
73239;SDS011;61452;40.054;4.110;2023-07-24T22:52:36;15.15;;;5.82;;
73239;SDS011;61452;40.054;4.110;2023-07-24T22:57:38;13.30;;;5.35;;
73239;SDS011;61452;40.054;4.110;2023-07-24T23:02:41;13.23;;;5.65;;
73239;SDS011;61452;40.054;4.110;2023-07-24T23:07:43;14.80;;;6.22;;
73239;SDS011;61452;40.054;4.110;2023-07-24T23:12:45;11.07;;;4.80;;
73239;SDS011;61452;40.054;4.110;2023-07-24T23:17:47;14.93;;;6.15;;
73239;SDS011;61452;40.054;4.110;2023-07-24T23:22:49;11.25;;;5.15;;
73239;SDS011;61452;40.054;4.110;2023-07-24T23:27:51;14.82;;;5.45;;
73239;SDS011;61452;40.054;4.110;2023-07-24T23:32:53;15.38;;;5.60;;
73239;SDS011;61452;40.054;4.110;2023-07-24T23:37:56;11.50;;;5.18;;
73239;SDS011;61452;40.054;4.110;2023-07-24T23:42:58;10.38;;;4.88;;
73239;SDS011;61452;40.054;4.110;2023-07-24T23:48:00;10.80;;;4.97;;
73239;SDS011;61452;40.054;4.110;2023-07-24T23:53:03;13.73;;;5.20;;
73239;SDS011;61452;40.054;4.110;2023-07-24T23:58:08;13.57;;;4.45;;
